sensor_id;sensor_type;location;lat;lon;timestamp;pressure;altitude;pressure_sealevel;temperature;humidity
72444;BME280;60449;52.016;5.414;2022-07-23T00:00:50;101848.31;;;15.34;75.83
72444;BME280;60449;52.016;5.414;2022-07-23T00:02:00;101857.13;;;15.30;76.02
72444;BME280;60449;52.016;5.414;2022-07-23T00:02:49;101850.97;;;15.37;75.82
72444;BME280;60449;52.016;5.414;2022-07-23T00:03:54;101845.56;;;15.11;76.28
72444;BME280;60449;52.016;5.414;2022-07-23T00:06:17;101849.03;;;15.00;76.79
72444;BME280;60449;52.016;5.414;2022-07-23T00:07:07;101844.56;;;14.93;77.29
72444;BME280;60449;52.016;5.414;2022-07-23T00:08:07;101847.28;;;15.02;77.19
72444;BME280;60449;52.016;5.414;2022-07-23T00:09:17;101850.88;;;15.11;76.53
72444;BME280;60449;52.016;5.414;2022-07-23T00:10:22;101855.25;;;14.99;76.78
72444;BME280;60449;52.016;5.414;2022-07-23T00:11:18;101850.72;;;14.80;77.32
72444;BME280;60449;52.016;5.414;2022-07-23T00:12:08;101857.66;;;14.61;78.44
72444;BME280;60449;52.016;5.414;2022-07-23T00:15:39;101849.56;;;14.45;78.93
72444;BME280;60449;52.016;5.414;2022-07-23T00:21:07;101856.59;;;14.40;78.59
72444;BME280;60449;52.016;5.414;2022-07-23T00:23:13;101854.91;;;14.48;78.45
72444;BME280;60449;52.016;5.414;2022-07-23T00:24:05;101862.00;;;14.52;78.25
72444;BME280;60449;52.016;5.414;2022-07-23T00:25:02;101854.03;;;14.52;78.21
72444;BME280;60449;52.016;5.414;2022-07-23T00:26:01;101854.91;;;14.51;78.06
72444;BME280;60449;52.016;5.414;2022-07-23T00:26:52;101856.66;;;14.43;78.23
72444;BME280;60449;52.016;5.414;2022-07-23T00:27:43;101855.72;;;14.39;78.83
72444;BME280;60449;52.016;5.414;2022-07-23T00:30:27;101841.38;;;14.14;79.59
72444;BME280;60449;52.016;5.414;2022-07-23T00:56:36;101826.81;;;14.78;78.32
72444;BME280;60449;52.016;5.414;2022-07-23T01:06:42;101823.41;;;15.04;77.79
72444;BME280;60449;52.016;5.414;2022-07-23T01:07:45;101826.94;;;15.09;77.17
72444;BME280;60449;52.016;5.414;2022-07-23T01:08:41;101826.03;;;15.09;77.37
72444;BME280;60449;52.016;5.414;2022-07-23T01:09:43;101832.22;;;15.01;77.10
72444;BME280;60449;52.016;5.414;2022-07-23T01:10:47;101820.69;;;14.98;77.20
72444;BME280;60449;52.016;5.414;2022-07-23T01:11:44;101821.63;;;15.03;77.42
72444;BME280;60449;52.016;5.414;2022-07-23T01:13:57;101828.75;;;15.18;76.57
72444;BME280;60449;52.016;5.414;2022-07-23T01:15:04;101823.44;;;15.17;76.48
72444;BME280;60449;52.016;5.414;2022-07-23T01:16:04;101820.81;;;15.23;76.34
72444;BME280;60449;52.016;5.414;2022-07-23T01:16:55;101816.31;;;15.12;76.66
72444;BME280;60449;52.016;5.414;2022-07-23T01:18:06;101820.78;;;15.15;76.67
72444;BME280;60449;52.016;5.414;2022-07-23T01:18:57;101818.06;;;15.06;76.77
72444;BME280;60449;52.016;5.414;2022-07-23T01:19:47;101820.75;;;15.13;76.59
72444;BME280;60449;52.016;5.414;2022-07-23T01:20:41;101822.59;;;15.25;76.10
72444;BME280;60449;52.016;5.414;2022-07-23T01:21:40;101818.19;;;15.32;75.89
72444;BME280;60449;52.016;5.414;2022-07-23T01:22:42;101814.63;;;15.28;75.77
72444;BME280;60449;52.016;5.414;2022-07-23T01:23:40;101818.16;;;15.29;75.99
72444;BME280;60449;52.016;5.414;2022-07-23T01:24:43;101817.22;;;15.16;76.58
72444;BME280;60449;52.016;5.414;2022-07-23T01:25:47;101816.38;;;15.22;76.39
72444;BME280;60449;52.016;5.414;2022-07-23T01:26:44;101811.91;;;15.10;76.40
72444;BME280;60449;52.016;5.414;2022-07-23T01:30:32;101820.75;;;15.07;76.81
72444;BME280;60449;52.016;5.414;2022-07-23T01:31:23;101811.00;;;15.09;76.79
72444;BME280;60449;52.016;5.414;2022-07-23T01:32:25;101814.56;;;15.13;76.51
72444;BME280;60449;52.016;5.414;2022-07-23T01:33:27;101807.47;;;15.13;75.89
72444;BME280;60449;52.016;5.414;2022-07-23T01:34:17;101811.91;;;15.16;76.14
72444;BME280;60449;52.016;5.414;2022-07-23T01:35:40;101816.38;;;15.19;76.28
72444;BME280;60449;52.016;5.414;2022-07-23T01:38:10;101806.59;;;15.14;75.92
72444;BME280;60449;52.016;5.414;2022-07-23T01:39:10;101808.34;;;15.09;75.78
72444;BME280;60449;52.016;5.414;2022-07-23T01:40:16;101799.53;;;15.15;75.82
72444;BME280;60449;52.016;5.414;2022-07-23T01:43:04;101798.63;;;15.05;76.27
72444;BME280;60449;52.016;5.414;2022-07-23T01:44:21;101803.91;;;15.02;76.45
72444;BME280;60449;52.016;5.414;2022-07-23T01:45:29;101802.09;;;14.92;76.45
72444;BME280;60449;52.016;5.414;2022-07-23T01:46:28;101809.13;;;14.83;76.30
72444;BME280;60449;52.016;5.414;2022-07-23T05:51:09;101885.44;;;15.28;72.52
72444;BME280;60449;52.016;5.414;2022-07-23T05:52:32;101895.25;;;15.35;72.91
72444;BME280;60449;52.016;5.414;2022-07-23T05:53:24;101885.50;;;15.37;73.11
72444;BME280;60449;52.016;5.414;2022-07-23T05:54:13;101889.03;;;15.33;73.06
72444;BME280;60449;52.016;5.414;2022-07-23T05:55:12;101896.16;;;15.45;72.95
72444;BME280;60449;52.016;5.414;2022-07-23T05:56:10;101897.06;;;15.53;72.73
72444;BME280;60449;52.016;5.414;2022-07-23T05:57:05;101904.19;;;15.61;72.94
72444;BME280;60449;52.016;5.414;2022-07-23T05:57:54;101892.66;;;15.62;73.01
72444;BME280;60449;52.016;5.414;2022-07-23T05:58:45;101894.44;;;15.64;73.40
72444;BME280;60449;52.016;5.414;2022-07-23T05:59:35;101900.69;;;15.71;73.14
72444;BME280;60449;52.016;5.414;2022-07-23T06:00:32;101896.25;;;15.78;72.95
72444;BME280;60449;52.016;5.414;2022-07-23T06:01:22;101894.50;;;15.83;72.95
72444;BME280;60449;52.016;5.414;2022-07-23T06:02:13;101893.59;;;15.87;72.86
72444;BME280;60449;52.016;5.414;2022-07-23T06:03:03;101894.53;;;15.91;72.56
72444;BME280;60449;52.016;5.414;2022-07-23T06:03:53;101894.56;;;15.95;72.70
72444;BME280;60449;52.016;5.414;2022-07-23T06:04:42;101897.19;;;15.97;72.70
72444;BME280;60449;52.016;5.414;2022-07-23T06:05:34;101895.44;;;16.02;72.48
72444;BME280;60449;52.016;5.414;2022-07-23T06:06:26;101886.56;;;16.03;72.38
72444;BME280;60449;52.016;5.414;2022-07-23T06:07:27;101883.91;;;15.95;72.66
72444;BME280;60449;52.016;5.414;2022-07-23T06:08:23;101883.91;;;16.02;72.38
72444;BME280;60449;52.016;5.414;2022-07-23T06:09:17;101894.56;;;16.08;72.66
72444;BME280;60449;52.016;5.414;2022-07-23T06:10:20;101887.47;;;16.10;72.74
72444;BME280;60449;52.016;5.414;2022-07-23T06:11:11;101896.34;;;16.12;73.67
72444;BME280;60449;52.016;5.414;2022-07-23T06:12:04;101891.00;;;16.03;74.60
72444;BME280;60449;52.016;5.414;2022-07-23T06:12:55;101897.22;;;16.06;74.69
72444;BME280;60449;52.016;5.414;2022-07-23T06:13:47;101899.88;;;16.17;74.54
72444;BME280;60449;52.016;5.414;2022-07-23T06:14:43;101902.53;;;16.12;74.46
72444;BME280;60449;52.016;5.414;2022-07-23T06:15:32;101903.41;;;16.19;74.92
72444;BME280;60449;52.016;5.414;2022-07-23T06:16:28;101903.44;;;16.28;74.73
72444;BME280;60449;52.016;5.414;2022-07-23T06:17:18;101900.78;;;16.38;74.12
72444;BME280;60449;52.016;5.414;2022-07-23T06:18:09;101900.78;;;16.46;74.01
72444;BME280;60449;52.016;5.414;2022-07-23T06:19:26;101902.53;;;16.53;73.91
72444;BME280;60449;52.016;5.414;2022-07-23T06:20:16;101907.88;;;16.45;74.40
72444;BME280;60449;52.016;5.414;2022-07-23T06:21:06;101899.88;;;16.54;73.86
72444;BME280;60449;52.016;5.414;2022-07-23T06:22:20;101898.09;;;16.55;73.72
72444;BME280;60449;52.016;5.414;2022-07-23T06:23:18;101899.88;;;16.53;73.12
72444;BME280;60449;52.016;5.414;2022-07-23T06:24:20;101896.31;;;16.45;73.48
72444;BME280;60449;52.016;5.414;2022-07-23T06:25:14;101894.56;;;16.54;73.27
72444;BME280;60449;52.016;5.414;2022-07-23T06:26:05;101904.28;;;16.65;73.06
72444;BME280;60449;52.016;5.414;2022-07-23T06:26:56;101901.63;;;16.76;72.91
72444;BME280;60449;52.016;5.414;2022-07-23T06:27:47;101897.16;;;16.85;72.50
72444;BME280;60449;52.016;5.414;2022-07-23T06:29:04;101900.69;;;16.89;72.41
72444;BME280;60449;52.016;5.414;2022-07-23T06:29:55;101898.03;;;16.94;72.61
72444;BME280;60449;52.016;5.414;2022-07-23T06:30:47;101898.06;;;17.00;72.57
72444;BME280;60449;52.016;5.414;2022-07-23T06:31:38;101902.47;;;17.03;72.82
72444;BME280;60449;52.016;5.414;2022-07-23T06:32:42;101906.91;;;16.90;73.09
72444;BME280;60449;52.016;5.414;2022-07-23T06:33:36;101908.75;;;16.69;73.66
72444;BME280;60449;52.016;5.414;2022-07-23T06:34:26;101903.41;;;16.42;74.65
72444;BME280;60449;52.016;5.414;2022-07-23T06:35:25;101905.19;;;16.11;76.06
72444;BME280;60449;52.016;5.414;2022-07-23T06:36:22;101899.00;;;16.46;74.75
72444;BME280;60449;52.016;5.414;2022-07-23T06:37:13;101898.97;;;16.49;74.46
72444;BME280;60449;52.016;5.414;2022-07-23T06:38:28;101899.88;;;16.17;74.63
72444;BME280;60449;52.016;5.414;2022-07-23T06:39:36;101898.09;;;16.60;73.62
72444;BME280;60449;52.016;5.414;2022-07-23T06:40:49;101891.88;;;16.64;73.65
72444;BME280;60449;52.016;5.414;2022-07-23T06:41:39;101898.06;;;16.78;72.70
72444;BME280;60449;52.016;5.414;2022-07-23T06:42:31;101901.63;;;16.99;72.58
72444;BME280;60449;52.016;5.414;2022-07-23T06:43:23;101897.13;;;17.09;72.49
72444;BME280;60449;52.016;5.414;2022-07-23T06:44:14;101895.34;;;16.97;72.91
72444;BME280;60449;52.016;5.414;2022-07-23T06:45:12;101901.53;;;17.21;71.33
72444;BME280;60449;52.016;5.414;2022-07-23T06:46:02;101899.81;;;16.92;71.92
72444;BME280;60449;52.016;5.414;2022-07-23T06:47:03;101911.41;;;16.72;72.00
72444;BME280;60449;52.016;5.414;2022-07-23T06:48:02;101901.56;;;17.08;71.36
72444;BME280;60449;52.016;5.414;2022-07-23T06:48:56;101902.41;;;17.13;71.58
72444;BME280;60449;52.016;5.414;2022-07-23T06:50:03;101906.84;;;17.21;71.64
72444;BME280;60449;52.016;5.414;2022-07-23T06:51:08;101906.75;;;17.42;71.06
72444;BME280;60449;52.016;5.414;2022-07-23T06:52:06;101910.31;;;17.48;71.65
72444;BME280;60449;52.016;5.414;2022-07-23T06:53:07;101908.41;;;17.68;71.04
72444;BME280;60449;52.016;5.414;2022-07-23T06:54:11;101897.66;;;17.86;70.17
72444;BME280;60449;52.016;5.414;2022-07-23T06:55:19;101900.38;;;17.75;69.03
72444;BME280;60449;52.016;5.414;2022-07-23T06:56:12;101904.91;;;17.60;68.64
72444;BME280;60449;52.016;5.414;2022-07-23T06:57:18;101898.81;;;17.33;69.14
72444;BME280;60449;52.016;5.414;2022-07-23T07:00:52;101904.75;;;17.85;67.90
72444;BME280;60449;52.016;5.414;2022-07-23T07:02:24;101910.00;;;17.97;67.67
72444;BME280;60449;52.016;5.414;2022-07-23T07:03:14;101903.88;;;17.83;68.20
72444;BME280;60449;52.016;5.414;2022-07-23T07:04:10;101907.44;;;17.83;68.06
72444;BME280;60449;52.016;5.414;2022-07-23T07:05:09;101910.25;;;17.57;68.14
72444;BME280;60449;52.016;5.414;2022-07-23T07:10:42;101904.19;;;17.21;70.44
72444;BME280;60449;52.016;5.414;2022-07-23T07:11:36;101901.41;;;17.53;69.81
72444;BME280;60449;52.016;5.414;2022-07-23T07:12:38;101904.78;;;17.82;68.85
72444;BME280;60449;52.016;5.414;2022-07-23T07:13:41;101899.38;;;17.94;69.98
72444;BME280;60449;52.016;5.414;2022-07-23T07:14:43;101908.41;;;17.68;68.57
72444;BME280;60449;52.016;5.414;2022-07-23T07:15:41;101917.41;;;17.49;69.70
72444;BME280;60449;52.016;5.414;2022-07-23T07:16:31;101918.34;;;17.38;68.94
72444;BME280;60449;52.016;5.414;2022-07-23T07:17:22;101918.16;;;17.74;68.73
72444;BME280;60449;52.016;5.414;2022-07-23T07:18:12;101914.44;;;17.98;67.61
72444;BME280;60449;52.016;5.414;2022-07-23T07:19:02;101918.09;;;17.85;67.87
72444;BME280;60449;52.016;5.414;2022-07-23T07:19:52;101911.78;;;18.05;67.91
72444;BME280;60449;52.016;5.414;2022-07-23T07:20:42;101910.03;;;17.94;66.95
72444;BME280;60449;52.016;5.414;2022-07-23T07:21:32;101907.34;;;17.97;67.37
72444;BME280;60449;52.016;5.414;2022-07-23T07:22:23;101906.34;;;18.17;67.08
72444;BME280;60449;52.016;5.414;2022-07-23T07:23:13;101902.66;;;18.32;66.94
72444;BME280;60449;52.016;5.414;2022-07-23T07:24:04;101900.16;;;18.12;67.51
72444;BME280;60449;52.016;5.414;2022-07-23T07:24:55;101903.50;;;18.39;66.91
72444;BME280;60449;52.016;5.414;2022-07-23T07:25:48;101908.75;;;18.50;67.01
72444;BME280;60449;52.016;5.414;2022-07-23T07:26:37;101897.28;;;18.37;66.75
72444;BME280;60449;52.016;5.414;2022-07-23T07:27:28;101902.50;;;18.52;66.92
72444;BME280;60449;52.016;5.414;2022-07-23T07:28:18;101910.44;;;18.60;66.77
72444;BME280;60449;52.016;5.414;2022-07-23T07:29:08;101915.63;;;18.73;66.83
72444;BME280;60449;52.016;5.414;2022-07-23T07:29:58;101916.31;;;18.93;65.90
72444;BME280;60449;52.016;5.414;2022-07-23T07:30:48;101909.59;;;18.53;65.17
72444;BME280;60449;52.016;5.414;2022-07-23T07:31:38;101920.41;;;18.35;66.21
72444;BME280;60449;52.016;5.414;2022-07-23T07:32:28;101924.94;;;18.30;66.44
72444;BME280;60449;52.016;5.414;2022-07-23T07:33:18;101918.41;;;18.62;66.03
72444;BME280;60449;52.016;5.414;2022-07-23T07:34:10;101925.59;;;18.57;66.28
72444;BME280;60449;52.016;5.414;2022-07-23T07:34:59;101921.16;;;18.55;65.96
72444;BME280;60449;52.016;5.414;2022-07-23T07:35:50;101918.88;;;18.09;67.57
72444;BME280;60449;52.016;5.414;2022-07-23T07:36:39;101929.69;;;17.78;68.34
72444;BME280;60449;52.016;5.414;2022-07-23T07:37:32;101929.44;;;18.23;67.67
72444;BME280;60449;52.016;5.414;2022-07-23T07:38:21;101929.47;;;18.15;66.16
72444;BME280;60449;52.016;5.414;2022-07-23T07:39:12;101928.59;;;18.16;67.17
72444;BME280;60449;52.016;5.414;2022-07-23T07:40:02;101932.22;;;18.07;68.61
72444;BME280;60449;52.016;5.414;2022-07-23T07:40:56;101932.25;;;18.06;69.29
72444;BME280;60449;52.016;5.414;2022-07-23T07:41:46;101938.53;;;17.88;68.46
72444;BME280;60449;52.016;5.414;2022-07-23T07:42:44;101935.69;;;18.19;66.71
72444;BME280;60449;52.016;5.414;2022-07-23T07:43:34;101938.50;;;17.95;67.48
72444;BME280;60449;52.016;5.414;2022-07-23T07:44:25;101937.66;;;17.86;68.07
72444;BME280;60449;52.016;5.414;2022-07-23T07:45:15;101936.66;;;18.01;68.13
72444;BME280;60449;52.016;5.414;2022-07-23T07:46:06;101941.91;;;18.19;68.07
72444;BME280;60449;52.016;5.414;2022-07-23T07:46:58;101945.59;;;17.96;68.98
72444;BME280;60449;52.016;5.414;2022-07-23T07:47:49;101937.50;;;18.17;67.65
72444;BME280;60449;52.016;5.414;2022-07-23T07:48:38;101940.16;;;18.15;66.89
72444;BME280;60449;52.016;5.414;2022-07-23T07:49:29;101938.19;;;18.42;66.47
72444;BME280;60449;52.016;5.414;2022-07-23T07:50:19;101938.16;;;18.47;66.01
72444;BME280;60449;52.016;5.414;2022-07-23T07:51:11;101936.50;;;18.29;65.68
72444;BME280;60449;52.016;5.414;2022-07-23T07:52:00;101936.66;;;18.10;66.69
72444;BME280;60449;52.016;5.414;2022-07-23T07:52:51;101938.34;;;18.23;67.51
72444;BME280;60449;52.016;5.414;2022-07-23T07:53:41;101929.34;;;18.34;66.75
72444;BME280;60449;52.016;5.414;2022-07-23T07:54:31;101930.41;;;18.12;66.87
72444;BME280;60449;52.016;5.414;2022-07-23T07:55:21;101936.59;;;18.16;67.00
72444;BME280;60449;52.016;5.414;2022-07-23T07:56:14;101931.09;;;18.35;65.05
72444;BME280;60449;52.016;5.414;2022-07-23T07:57:04;101930.72;;;18.78;64.52
72444;BME280;60449;52.016;5.414;2022-07-23T07:57:54;101930.56;;;18.94;63.67
72444;BME280;60449;52.016;5.414;2022-07-23T07:58:44;101926.06;;;19.01;64.39
72444;BME280;60449;52.016;5.414;2022-07-23T07:59:35;101926.78;;;19.15;64.13
72444;BME280;60449;52.016;5.414;2022-07-23T08:00:25;101936.06;;;18.78;65.82
72444;BME280;60449;52.016;5.414;2022-07-23T08:01:16;101922.53;;;18.97;65.26
72444;BME280;60449;52.016;5.414;2022-07-23T08:02:06;101928.53;;;19.21;63.86
72444;BME280;60449;52.016;5.414;2022-07-23T08:02:56;101930.09;;;19.37;63.64
72444;BME280;60449;52.016;5.414;2022-07-23T08:03:46;101929.31;;;19.28;65.23
72444;BME280;60449;52.016;5.414;2022-07-23T08:04:37;101931.97;;;19.31;63.01
72444;BME280;60449;52.016;5.414;2022-07-23T08:05:29;101930.97;;;19.39;62.76
72444;BME280;60449;52.016;5.414;2022-07-23T08:06:20;101929.38;;;19.23;63.87
72444;BME280;60449;52.016;5.414;2022-07-23T08:07:10;101930.78;;;18.72;64.52
72444;BME280;60449;52.016;5.414;2022-07-23T08:08:00;101929.84;;;18.76;65.02
72444;BME280;60449;52.016;5.414;2022-07-23T08:08:50;101944.78;;;19.02;63.13
72444;BME280;60449;52.016;5.414;2022-07-23T08:09:40;101937.41;;;19.23;61.64
72444;BME280;60449;52.016;5.414;2022-07-23T08:10:30;101935.69;;;19.17;60.71
72444;BME280;60449;52.016;5.414;2022-07-23T08:11:22;101937.66;;;19.01;62.13
72444;BME280;60449;52.016;5.414;2022-07-23T08:12:12;101940.28;;;19.04;62.46
72444;BME280;60449;52.016;5.414;2022-07-23T08:13:02;101935.69;;;19.19;62.91
72444;BME280;60449;52.016;5.414;2022-07-23T08:13:52;101936.44;;;19.30;62.43
72444;BME280;60449;52.016;5.414;2022-07-23T08:14:42;101939.13;;;19.30;62.95
72444;BME280;60449;52.016;5.414;2022-07-23T08:15:34;101930.50;;;18.98;62.79
72444;BME280;60449;52.016;5.414;2022-07-23T08:16:25;101935.03;;;18.92;63.22
72444;BME280;60449;52.016;5.414;2022-07-23T08:17:14;101935.72;;;19.16;62.20
72444;BME280;60449;52.016;5.414;2022-07-23T08:18:05;101933.72;;;19.33;61.71
72444;BME280;60449;52.016;5.414;2022-07-23T08:18:55;101939.22;;;19.22;61.77
72444;BME280;60449;52.016;5.414;2022-07-23T08:19:53;101938.81;;;18.71;62.63
72444;BME280;60449;52.016;5.414;2022-07-23T08:20:43;101938.56;;;19.00;62.06
72444;BME280;60449;52.016;5.414;2022-07-23T08:21:33;101936.81;;;18.93;62.06
72444;BME280;60449;52.016;5.414;2022-07-23T08:22:23;101939.44;;;19.02;62.81
72444;BME280;60449;52.016;5.414;2022-07-23T08:23:13;101947.22;;;19.21;62.25
72444;BME280;60449;52.016;5.414;2022-07-23T08:24:03;101942.59;;;19.35;61.33
72444;BME280;60449;52.016;5.414;2022-07-23T08:24:55;101946.03;;;19.45;61.16
72444;BME280;60449;52.016;5.414;2022-07-23T08:25:46;101944.31;;;19.43;60.91
72444;BME280;60449;52.016;5.414;2022-07-23T08:26:38;101951.63;;;19.28;60.55
72444;BME280;60449;52.016;5.414;2022-07-23T08:27:28;101948.50;;;19.64;59.98
72444;BME280;60449;52.016;5.414;2022-07-23T08:28:18;101947.28;;;19.85;59.44
72444;BME280;60449;52.016;5.414;2022-07-23T08:29:08;101950.88;;;19.84;59.28
72444;BME280;60449;52.016;5.414;2022-07-23T08:29:59;101962.75;;;19.66;59.69
72444;BME280;60449;52.016;5.414;2022-07-23T08:30:48;101949.38;;;19.64;58.74
72444;BME280;60449;52.016;5.414;2022-07-23T08:31:39;101949.41;;;19.61;58.83
72444;BME280;60449;52.016;5.414;2022-07-23T08:32:29;101948.53;;;19.61;59.24
72444;BME280;60449;52.016;5.414;2022-07-23T08:33:19;101952.09;;;19.60;58.60
72444;BME280;60449;52.016;5.414;2022-07-23T08:34:10;101947.91;;;19.42;59.05
72444;BME280;60449;52.016;5.414;2022-07-23T08:35:00;101951.53;;;19.34;60.38
72444;BME280;60449;52.016;5.414;2022-07-23T08:35:50;101939.03;;;19.36;61.46
72444;BME280;60449;52.016;5.414;2022-07-23T08:36:41;101944.19;;;19.52;61.35
72444;BME280;60449;52.016;5.414;2022-07-23T08:37:31;101943.97;;;19.67;61.27
72444;BME280;60449;52.016;5.414;2022-07-23T08:38:22;101946.44;;;19.85;61.37
72444;BME280;60449;52.016;5.414;2022-07-23T08:39:12;101954.25;;;20.02;58.96
72444;BME280;60449;52.016;5.414;2022-07-23T08:40:03;101950.22;;;19.68;56.66
72444;BME280;60449;52.016;5.414;2022-07-23T08:40:55;101945.63;;;19.78;57.46
72444;BME280;60449;52.016;5.414;2022-07-23T08:41:48;101946.69;;;19.66;58.53
72444;BME280;60449;52.016;5.414;2022-07-23T08:42:39;101948.97;;;19.95;58.73
72444;BME280;60449;52.016;5.414;2022-07-23T08:43:31;101952.50;;;19.98;57.47
72444;BME280;60449;52.016;5.414;2022-07-23T08:44:24;101941.13;;;20.41;57.03
72444;BME280;60449;52.016;5.414;2022-07-23T08:45:16;101940.88;;;20.57;55.26
72444;BME280;60449;52.016;5.414;2022-07-23T08:46:10;101957.19;;;20.41;55.73
72444;BME280;60449;52.016;5.414;2022-07-23T08:47:02;101939.78;;;20.67;54.50
72444;BME280;60449;52.016;5.414;2022-07-23T08:47:56;101947.16;;;21.04;54.13
72444;BME280;60449;52.016;5.414;2022-07-23T08:48:48;101945.00;;;21.25;53.29
72444;BME280;60449;52.016;5.414;2022-07-23T08:49:41;101950.53;;;21.17;53.24
72444;BME280;60449;52.016;5.414;2022-07-23T08:50:32;101935.22;;;21.63;52.60
72444;BME280;60449;52.016;5.414;2022-07-23T08:51:26;101945.38;;;21.91;52.35
72444;BME280;60449;52.016;5.414;2022-07-23T08:52:17;101946.41;;;21.43;53.30
72444;BME280;60449;52.016;5.414;2022-07-23T08:53:08;101950.41;;;21.22;53.91
72444;BME280;60449;52.016;5.414;2022-07-23T08:54:00;101944.13;;;21.69;53.47
72444;BME280;60449;52.016;5.414;2022-07-23T08:54:51;101942.72;;;21.03;54.62
72444;BME280;60449;52.016;5.414;2022-07-23T08:55:44;101944.56;;;21.00;54.56
72444;BME280;60449;52.016;5.414;2022-07-23T08:56:35;101943.34;;;21.62;53.49
72444;BME280;60449;52.016;5.414;2022-07-23T08:57:26;101947.97;;;21.96;53.38
72444;BME280;60449;52.016;5.414;2022-07-23T08:58:17;101941.13;;;22.20;53.30
72444;BME280;60449;52.016;5.414;2022-07-23T08:59:08;101950.28;;;22.49;54.91
72444;BME280;60449;52.016;5.414;2022-07-23T08:59:58;101953.44;;;22.67;54.59
72444;BME280;60449;52.016;5.414;2022-07-23T09:00:48;101945.16;;;23.08;50.88
72444;BME280;60449;52.016;5.414;2022-07-23T09:01:39;101947.81;;;22.76;49.19
72444;BME280;60449;52.016;5.414;2022-07-23T09:02:29;101947.06;;;22.33;50.04
72444;BME280;60449;52.016;5.414;2022-07-23T09:03:21;101953.75;;;22.55;50.50
72444;BME280;60449;52.016;5.414;2022-07-23T09:04:12;101945.09;;;22.42;51.00
72444;BME280;60449;52.016;5.414;2022-07-23T09:05:03;101949.16;;;22.93;50.94
72444;BME280;60449;52.016;5.414;2022-07-23T09:05:55;101945.44;;;22.64;51.97
72444;BME280;60449;52.016;5.414;2022-07-23T09:06:46;101947.53;;;23.19;51.01
72444;BME280;60449;52.016;5.414;2022-07-23T09:07:36;101946.94;;;23.41;50.03
72444;BME280;60449;52.016;5.414;2022-07-23T09:08:35;101944.28;;;23.39;50.85
72444;BME280;60449;52.016;5.414;2022-07-23T09:09:27;101950.72;;;23.65;50.39
72444;BME280;60449;52.016;5.414;2022-07-23T09:10:19;101952.59;;;23.91;48.68
72444;BME280;60449;52.016;5.414;2022-07-23T09:11:10;101947.50;;;23.82;46.47
72444;BME280;60449;52.016;5.414;2022-07-23T09:12:03;101946.34;;;23.31;48.03
72444;BME280;60449;52.016;5.414;2022-07-23T09:12:54;101945.88;;;23.46;48.82
72444;BME280;60449;52.016;5.414;2022-07-23T09:13:46;101947.22;;;23.31;49.81
72444;BME280;60449;52.016;5.414;2022-07-23T09:14:40;101945.03;;;23.13;50.25
72444;BME280;60449;52.016;5.414;2022-07-23T09:15:31;101946.59;;;23.53;50.10
72444;BME280;60449;52.016;5.414;2022-07-23T09:16:25;101946.66;;;23.50;50.25
72444;BME280;60449;52.016;5.414;2022-07-23T09:17:18;101942.19;;;23.49;50.32
72444;BME280;60449;52.016;5.414;2022-07-23T09:18:08;101948.72;;;23.09;52.35
72444;BME280;60449;52.016;5.414;2022-07-23T09:18:59;101938.09;;;23.04;49.34
72444;BME280;60449;52.016;5.414;2022-07-23T09:19:51;101944.34;;;23.04;50.63
72444;BME280;60449;52.016;5.414;2022-07-23T09:20:40;101939.38;;;23.22;49.60
72444;BME280;60449;52.016;5.414;2022-07-23T09:21:33;101948.47;;;22.12;51.81
72444;BME280;60449;52.016;5.414;2022-07-23T09:22:26;101945.53;;;21.41;53.81
72444;BME280;60449;52.016;5.414;2022-07-23T09:23:16;101945.47;;;21.00;54.21
72444;BME280;60449;52.016;5.414;2022-07-23T09:24:08;101948.28;;;20.94;54.64
72444;BME280;60449;52.016;5.414;2022-07-23T09:25:10;101947.53;;;20.84;54.37
72444;BME280;60449;52.016;5.414;2022-07-23T09:26:00;101948.38;;;20.88;55.54
72444;BME280;60449;52.016;5.414;2022-07-23T09:26:53;101942.91;;;20.94;55.17
72444;BME280;60449;52.016;5.414;2022-07-23T09:27:51;101956.81;;;21.16;53.54
72444;BME280;60449;52.016;5.414;2022-07-23T09:28:51;101954.22;;;21.97;51.98
72444;BME280;60449;52.016;5.414;2022-07-23T09:29:55;101946.69;;;22.50;51.93
72444;BME280;60449;52.016;5.414;2022-07-23T09:30:46;101946.34;;;22.98;49.96
72444;BME280;60449;52.016;5.414;2022-07-23T09:31:44;101949.88;;;23.33;49.70
72444;BME280;60449;52.016;5.414;2022-07-23T09:32:36;101953.72;;;23.23;48.76
72444;BME280;60449;52.016;5.414;2022-07-23T09:33:27;101950.09;;;22.92;50.41
72444;BME280;60449;52.016;5.414;2022-07-23T09:34:20;101956.59;;;22.48;50.77
72444;BME280;60449;52.016;5.414;2022-07-23T09:35:11;101952.97;;;23.17;49.74
72444;BME280;60449;52.016;5.414;2022-07-23T09:36:01;101949.38;;;23.17;49.69
72444;BME280;60449;52.016;5.414;2022-07-23T09:36:53;101955.69;;;22.83;51.68
72444;BME280;60449;52.016;5.414;2022-07-23T09:38:00;101948.56;;;22.82;50.08
72444;BME280;60449;52.016;5.414;2022-07-23T09:38:50;101950.63;;;22.72;49.95
72444;BME280;60449;52.016;5.414;2022-07-23T09:39:43;101957.78;;;23.04;49.43
72444;BME280;60449;52.016;5.414;2022-07-23T09:40:35;101948.41;;;23.19;48.85
72444;BME280;60449;52.016;5.414;2022-07-23T09:41:24;101946.66;;;22.52;51.35
72444;BME280;60449;52.016;5.414;2022-07-23T09:42:25;101948.84;;;21.97;52.86
72444;BME280;60449;52.016;5.414;2022-07-23T09:43:27;101953.34;;;22.34;50.59
72444;BME280;60449;52.016;5.414;2022-07-23T09:44:20;101942.16;;;23.19;49.96
72444;BME280;60449;52.016;5.414;2022-07-23T09:45:11;101946.81;;;23.12;49.68
72444;BME280;60449;52.016;5.414;2022-07-23T09:46:22;101946.13;;;23.05;49.64
72444;BME280;60449;52.016;5.414;2022-07-23T09:47:13;101948.00;;;23.67;49.00
72444;BME280;60449;52.016;5.414;2022-07-23T09:48:12;101948.44;;;23.51;50.75
72444;BME280;60449;52.016;5.414;2022-07-23T09:49:11;101949.44;;;23.77;50.50